Du har inga inställningar för hoppväder.nu

Hoppväder.nu

Senast uppdaterat 05:16

UTC-tid

2018-06-20 kl. 03:16


Sol och måne

Solen går upp 4:04 och går ner 22:16 (beräknade cirkatider)
Nästa fullmåne blir om 8 dagar (2018-06-28)

METAR

ESGG (Landvetter)
(26 minuter sedan)
ESGG 200250Z 26009KT 9999 FEW034 10/06 Q1016=



ESGP (Säve)
ESGP NIL=



ESIB (Såtenäs)
(26 minuter sedan)
ESIB 200250Z AUTO 25014KT 9999 FEW130/// 12/09 Q1014=



ESGT (Trollhättan/Vänersborg)
ESGT NIL=






TAF

ESGG (Landvetter)
(1666 minuter sedan)
ESGG 192330Z 2000/2024 25012KT CAVOK BECMG 2007/2009 19010KT TEMPO 2010/2024 RA BKN006 BECMG 2013/2015 24016G26KT=



ESGP (Säve)
ESGP



ESIB (Såtenäs)
ESIB



ESGT (Trollhättan/Vänersborg)
ESGT





Kodnycklar till TAF och METAR






LHP

(Vårgårda är område I4c i Norra delen)

Prognos är inte uppdaterad




Spotting

Hur fungerar spotthjälpen och Vindkartan?

Markvind är ca 0 m/s.



Vindkartan

Senast uppdaterad 05:16




All data kommer från LFV.se